createdAt,value
2018-01-16T00:00:07.594Z,4.60
2018-01-16T00:02:39.305Z,4.70
2018-01-16T00:05:10.071Z,4.70
2018-01-16T00:07:41.755Z,4.80
2018-01-16T00:10:12.502Z,5.20
2018-01-16T00:12:44.092Z,4.80
2018-01-16T00:15:15.879Z,4.80
2018-01-16T00:17:46.668Z,4.80
2018-01-16T00:20:17.386Z,4.80
2018-01-16T00:22:48.207Z,4.80
2018-01-16T00:25:18.971Z,4.80
2018-01-16T00:27:50.215Z,4.80
2018-01-16T00:30:20.993Z,4.90
2018-01-16T00:32:51.736Z,4.50
2018-01-16T00:35:22.616Z,4.90
2018-01-16T00:37:53.726Z,4.90
2018-01-16T00:40:24.482Z,4.90
2018-01-16T00:42:55.203Z,4.90
2018-01-16T00:45:26.262Z,5.10
2018-01-16T00:47:57.839Z,5.10
2018-01-16T00:50:29.366Z,5.10
2018-01-16T00:53:00.163Z,5.00
2018-01-16T00:55:30.944Z,5.10
2018-01-16T00:58:01.971Z,5.10
2018-01-16T01:00:32.683Z,5.20
2018-01-16T01:03:04.510Z,5.20
2018-01-16T01:05:35.530Z,5.20
2018-01-16T01:08:06.262Z,5.30
2018-01-16T01:10:37.007Z,5.30
2018-01-16T01:13:07.776Z,5.30
2018-01-16T01:15:38.539Z,5.30
2018-01-16T01:18:10.316Z,5.30
2018-01-16T01:20:41.110Z,5.30
2018-01-16T01:23:11.827Z,5.40
2018-01-16T01:25:42.611Z,5.40
2018-01-16T01:28:14.139Z,5.40
2018-01-16T01:30:44.850Z,5.30
2018-01-16T01:33:15.592Z,5.40
2018-01-16T01:35:46.694Z,5.30
2018-01-16T01:38:17.475Z,5.40
2018-01-16T01:40:48.200Z,5.50
2018-01-16T01:43:18.923Z,5.50
2018-01-16T01:46:52.087Z,5.50
2018-01-16T01:49:22.828Z,5.50
2018-01-16T01:51:53.599Z,5.50
2018-01-16T01:54:24.622Z,5.60
2018-01-16T01:56:55.406Z,5.70
2018-01-16T01:59:27.489Z,5.70
2018-01-16T02:01:58.538Z,5.70
2018-01-16T02:04:29.347Z,5.70
2018-01-16T02:07:00.169Z,5.70
2018-01-16T02:09:30.901Z,5.70
2018-01-16T02:12:01.678Z,5.70
2018-01-16T02:14:32.725Z,5.80
2018-01-16T02:17:03.460Z,5.80
2018-01-16T02:19:34.245Z,5.80
2018-01-16T02:22:05.355Z,5.90
2018-01-16T02:24:37.006Z,5.90
2018-01-16T02:27:08.145Z,5.80
2018-01-16T02:29:40.553Z,5.90
2018-01-16T02:32:12.334Z,5.90
2018-01-16T02:34:44.615Z,5.80
2018-01-16T02:37:15.394Z,5.80
2018-01-16T02:39:46.156Z,5.70
2018-01-16T02:42:17.920Z,5.50
2018-01-16T02:44:49.287Z,5.50
2018-01-16T02:47:20.187Z,5.50
2018-01-16T02:49:51.087Z,5.30
2018-01-16T02:52:21.863Z,5.30
2018-01-16T02:54:53.943Z,5.20
2018-01-16T02:57:25.062Z,5.20
2018-01-16T02:59:56.574Z,5.20
2018-01-16T03:02:27.306Z,5.20
2018-01-16T03:04:58.145Z,5.20
2018-01-16T03:07:28.899Z,5.20
2018-01-16T03:09:59.624Z,5.10
2018-01-16T03:12:30.646Z,5.00
2018-01-16T03:15:01.804Z,5.00
2018-01-16T03:17:32.665Z,5.10
2018-01-16T03:20:04.542Z,5.30
2018-01-16T03:22:35.293Z,5.30
2018-01-16T03:25:06.047Z,5.30
2018-01-16T03:27:36.803Z,5.30
2018-01-16T03:30:07.540Z,5.40
2018-01-16T03:32:39.402Z,5.30
2018-01-16T03:35:10.167Z,5.30
2018-01-16T03:37:41.934Z,5.30
2018-01-16T03:40:12.912Z,5.30
2018-01-16T03:42:43.597Z,5.30
2018-01-16T03:45:14.359Z,5.30
2018-01-16T03:47:45.837Z,5.20
2018-01-16T03:50:16.579Z,5.20
2018-01-16T03:52:47.653Z,5.10
2018-01-16T03:55:19.269Z,5.10
2018-01-16T03:57:50.031Z,5.10
2018-01-16T04:00:23.300Z,5.10
2018-01-16T04:02:54.070Z,5.10
2018-01-16T04:05:24.897Z,5.30
2018-01-16T04:07:56.402Z,5.00
2018-01-16T04:10:28.206Z,5.10
2018-01-16T04:12:59.759Z,5.10
2018-01-16T04:15:31.242Z,5.10
2018-01-16T04:18:01.985Z,5.10
2018-01-16T04:20:32.785Z,5.00
2018-01-16T04:23:03.893Z,5.00
2018-01-16T04:25:34.609Z,4.90
2018-01-16T04:28:06.098Z,4.80
2018-01-16T04:30:37.081Z,4.80
2018-01-16T04:33:07.914Z,4.80
2018-01-16T04:35:38.636Z,4.70
2018-01-16T04:38:09.349Z,4.90
2018-01-16T04:40:40.146Z,4.60
2018-01-16T04:43:10.906Z,4.60
2018-01-16T04:45:42.945Z,4.40
2018-01-16T04:48:13.629Z,4.40
2018-01-16T04:50:44.352Z,4.40
2018-01-16T04:53:15.377Z,4.30
2018-01-16T04:55:46.890Z,4.10
2018-01-16T04:58:17.682Z,4.10
2018-01-16T05:00:48.410Z,4.10
2018-01-16T05:03:19.189Z,4.00
2018-01-16T05:05:49.897Z,4.00
2018-01-16T05:08:20.813Z,4.00
2018-01-16T05:10:51.786Z,4.10
2018-01-16T05:13:22.557Z,4.10
2018-01-16T05:15:54.031Z,4.20
2018-01-16T05:18:24.736Z,4.20
2018-01-16T05:20:55.467Z,4.20
2018-01-16T05:23:27.310Z,4.20
2018-01-16T05:25:58.018Z,4.10
2018-01-16T05:28:28.770Z,4.20
2018-01-16T05:30:59.579Z,4.20
2018-01-16T05:33:30.318Z,4.20
2018-01-16T05:36:01.238Z,4.20
2018-01-16T05:38:32.567Z,4.20
2018-01-16T05:41:03.994Z,4.20
2018-01-16T05:43:35.542Z,4.20
2018-01-16T05:46:07.218Z,4.10
2018-01-16T05:48:38.146Z,4.10
2018-01-16T05:51:09.900Z,4.20
2018-01-16T05:53:41.514Z,4.20
2018-01-16T05:56:12.541Z,4.20
2018-01-16T05:58:43.276Z,4.20
2018-01-16T06:01:14.334Z,4.20
2018-01-16T06:03:45.034Z,4.10
2018-01-16T06:06:15.758Z,4.20
2018-01-16T06:08:46.549Z,4.20
2018-01-16T06:11:18.532Z,4.10
2018-01-16T06:13:50.032Z,4.10
2018-01-16T06:16:20.802Z,4.10
2018-01-16T06:18:52.294Z,4.00
2018-01-16T06:21:23.020Z,4.00
2018-01-16T06:23:54.196Z,4.00
2018-01-16T06:26:24.979Z,4.00
2018-01-16T06:29:04.864Z,4.10
2018-01-16T06:31:36.133Z,4.10
2018-01-16T06:34:08.504Z,4.10
2018-01-16T06:36:44.894Z,4.10
2018-01-16T06:39:21.284Z,4.20
2018-01-16T06:41:53.386Z,4.20
2018-01-16T06:44:24.316Z,4.20
2018-01-16T06:46:55.142Z,4.20
2018-01-16T06:49:25.822Z,4.10
2018-01-16T06:51:58.779Z,3.70
2018-01-16T06:54:30.634Z,3.70
2018-01-16T06:57:12.308Z,3.60
2018-01-16T06:59:51.981Z,3.50
2018-01-16T07:02:24.357Z,3.50
2018-01-16T07:04:55.056Z,3.50
2018-01-16T07:07:25.806Z,3.40
2018-01-16T07:09:59.769Z,3.40
2018-01-16T07:12:34.362Z,3.20
2018-01-16T07:15:05.680Z,3.20
2018-01-16T07:17:37.991Z,3.00
2018-01-16T07:20:09.331Z,3.10
2018-01-16T07:22:41.014Z,3.00
2018-01-16T07:25:11.812Z,3.10
2018-01-16T07:27:47.421Z,3.10
2018-01-16T07:30:19.422Z,3.10
2018-01-16T07:32:51.066Z,3.10
2018-01-16T07:35:22.786Z,3.10
2018-01-16T07:37:58.336Z,3.10
2018-01-16T07:40:32.544Z,3.20
2018-01-16T07:43:17.233Z,3.20
2018-01-16T07:45:51.384Z,3.20
2018-01-16T07:48:23.554Z,3.20
2018-01-16T07:50:55.522Z,3.10
2018-01-16T07:53:27.550Z,3.00
2018-01-16T07:55:58.765Z,3.00
2018-01-16T07:58:29.700Z,3.10
2018-01-16T08:01:00.869Z,3.10
2018-01-16T08:03:32.607Z,3.20
2018-01-16T08:06:03.325Z,3.20
2018-01-16T08:08:35.458Z,3.40
2018-01-16T08:11:07.308Z,3.50
2018-01-16T08:14:26.286Z,3.60
2018-01-16T08:16:59.824Z,3.60
2018-01-16T08:19:32.305Z,3.70
2018-01-16T08:22:04.058Z,3.60
2018-01-16T08:24:37.912Z,3.60
2018-01-16T08:27:11.109Z,3.60
2018-01-16T08:29:42.622Z,3.70
2018-01-16T08:32:13.518Z,3.70
2018-01-16T08:34:44.846Z,3.70
2018-01-16T08:37:17.686Z,3.70
2018-01-16T08:39:50.129Z,3.80
2018-01-16T08:43:03.338Z,3.70
2018-01-16T08:45:38.757Z,3.70
2018-01-16T08:48:11.063Z,3.70
2018-01-16T08:50:42.339Z,3.70
2018-01-16T08:53:13.201Z,3.70
2018-01-16T08:55:51.170Z,3.70
2018-01-16T08:58:26.523Z,3.60
2018-01-16T09:00:59.438Z,3.60
2018-01-16T09:03:32.199Z,3.50
2018-01-16T09:06:03.998Z,3.50
2018-01-16T09:08:35.905Z,3.50
2018-01-16T09:11:07.383Z,3.50
2018-01-16T09:13:38.170Z,3.50
2018-01-16T09:16:08.942Z,3.50
2018-01-16T09:18:40.475Z,3.40
2018-01-16T09:21:12.126Z,3.40
2018-01-16T09:23:42.815Z,3.40
2018-01-16T09:26:13.599Z,3.40
2018-01-16T09:28:44.573Z,3.50
2018-01-16T09:31:15.326Z,3.70
2018-01-16T09:33:46.425Z,3.70
2018-01-16T09:36:18.059Z,3.70
2018-01-16T09:38:48.807Z,3.70
2018-01-16T09:41:20.451Z,3.70
2018-01-16T09:43:51.348Z,3.70
2018-01-16T09:46:22.101Z,3.80
2018-01-16T09:48:53.397Z,3.80
2018-01-16T09:51:24.307Z,3.80
2018-01-16T09:53:55.232Z,4.00
2018-01-16T09:56:25.958Z,4.00
2018-01-16T09:58:56.667Z,4.10
2018-01-16T10:01:28.969Z,4.30
2018-01-16T10:04:00.536Z,4.30
2018-01-16T10:06:31.342Z,4.30
2018-01-16T10:09:02.598Z,4.20
2018-01-16T10:11:33.356Z,4.40
2018-01-16T10:14:05.008Z,4.40
2018-01-16T10:16:36.462Z,4.50
2018-01-16T10:19:08.134Z,4.40
2018-01-16T10:21:39.106Z,4.40
2018-01-16T10:24:10.302Z,4.50
2018-01-16T10:26:41.774Z,4.50
2018-01-16T10:29:12.796Z,4.50
2018-01-16T10:31:44.294Z,4.50
2018-01-16T10:34:14.994Z,4.50
2018-01-16T10:36:45.731Z,4.60
2018-01-16T10:39:16.484Z,4.40
2018-01-16T10:41:47.252Z,4.40
2018-01-16T10:44:18.290Z,4.40
2018-01-16T10:46:50.610Z,4.60
2018-01-16T10:49:21.522Z,4.60
2018-01-16T10:51:52.209Z,4.70
2018-01-16T10:54:22.957Z,4.60
2018-01-16T10:56:53.634Z,4.70
2018-01-16T10:59:24.643Z,4.60
2018-01-16T11:01:56.099Z,4.70
2018-01-16T11:04:27.223Z,4.70
2018-01-16T11:06:57.943Z,4.70
2018-01-16T11:09:28.713Z,4.60
2018-01-16T11:11:59.537Z,4.60
2018-01-16T11:14:32.834Z,4.70
2018-01-16T11:17:22.089Z,4.60
2018-01-16T11:19:53.554Z,4.70
2018-01-16T11:22:25.041Z,5.00
2018-01-16T11:24:55.781Z,4.90
2018-01-16T11:27:26.447Z,5.10
2018-01-16T11:29:57.158Z,5.10
2018-01-16T11:32:27.926Z,5.00
2018-01-16T11:34:59.368Z,5.00
2018-01-16T11:37:31.032Z,5.00
2018-01-16T11:40:02.534Z,4.90
2018-01-16T11:42:33.378Z,4.90
2018-01-16T11:45:04.258Z,4.90
2018-01-16T11:47:36.433Z,5.00
2018-01-16T11:50:07.160Z,5.00
2018-01-16T11:52:37.946Z,5.00
2018-01-16T11:55:09.558Z,5.00
2018-01-16T11:57:40.365Z,5.00
2018-01-16T12:00:11.957Z,5.00
2018-01-16T12:02:42.874Z,5.00
2018-01-16T12:05:14.516Z,5.10
2018-01-16T12:07:45.843Z,5.00
2018-01-16T12:10:16.557Z,5.20
2018-01-16T12:12:47.508Z,5.20
2018-01-16T12:15:18.283Z,5.10
2018-01-16T12:17:49.112Z,5.10
2018-01-16T12:20:20.625Z,5.00
2018-01-16T12:22:51.355Z,5.00
2018-01-16T12:25:22.450Z,4.90
2018-01-16T12:27:53.154Z,5.10
2018-01-16T12:30:23.861Z,5.00
2018-01-16T12:32:54.642Z,5.00
2018-01-16T12:35:26.200Z,5.20
2018-01-16T12:37:57.223Z,5.20
2018-01-16T12:40:29.650Z,5.30
2018-01-16T12:43:01.820Z,5.20
2018-01-16T12:45:33.435Z,5.10
2018-01-16T12:48:04.945Z,5.00
2018-01-16T12:50:36.571Z,5.00
2018-01-16T12:53:07.299Z,5.00
2018-01-16T12:55:38.090Z,5.00
2018-01-16T12:58:09.582Z,5.00
2018-01-16T13:00:40.322Z,4.90
2018-01-16T13:03:11.034Z,5.00
2018-01-16T13:05:41.850Z,5.10
2018-01-16T13:08:12.948Z,5.00
2018-01-16T13:10:43.678Z,5.20
2018-01-16T13:13:17.538Z,5.20
2018-01-16T13:15:48.662Z,5.10
2018-01-16T13:18:20.219Z,5.50
2018-01-16T13:20:50.954Z,5.50
2018-01-16T13:23:21.710Z,5.20
2018-01-16T13:25:53.738Z,4.40
2018-01-16T13:28:25.258Z,3.60
2018-01-16T13:30:55.960Z,3.60
2018-01-16T13:33:26.831Z,3.50
2018-01-16T13:35:57.621Z,3.40
2018-01-16T13:38:28.989Z,3.50
2018-01-16T13:40:59.819Z,3.60
2018-01-16T13:43:30.679Z,3.30
2018-01-16T13:46:01.811Z,2.90
2018-01-16T13:48:32.505Z,2.90
2018-01-16T13:51:03.198Z,2.90
2018-01-16T13:53:34.670Z,2.90
2018-01-16T13:56:05.778Z,2.90
2018-01-16T13:58:37.605Z,2.80
2018-01-16T14:01:08.347Z,3.10
2018-01-16T14:03:39.124Z,2.80
2018-01-16T14:06:10.426Z,2.80
2018-01-16T14:08:41.170Z,2.90
2018-01-16T14:11:12.106Z,2.90
2018-01-16T14:13:42.834Z,2.90
2018-01-16T14:16:13.560Z,2.90
2018-01-16T14:18:44.542Z,2.90
2018-01-16T14:21:15.249Z,2.90
2018-01-16T14:23:46.022Z,2.90
2018-01-16T14:26:17.515Z,3.00
2018-01-16T14:28:49.559Z,3.00
2018-01-16T14:31:20.378Z,3.00
2018-01-16T14:33:51.841Z,3.10
2018-01-16T14:36:22.874Z,3.10
2018-01-16T14:38:53.595Z,3.20
2018-01-16T14:41:25.062Z,3.10
2018-01-16T14:43:55.818Z,3.10
2018-01-16T14:46:26.575Z,3.10
2018-01-16T14:48:57.526Z,3.10
2018-01-16T14:51:28.213Z,3.10
2018-01-16T14:53:58.923Z,3.10
2018-01-16T14:56:30.889Z,3.00
2018-01-16T14:59:01.697Z,3.00
2018-01-16T15:01:32.782Z,3.00
2018-01-16T15:04:03.505Z,3.00
2018-01-16T15:06:34.279Z,3.10
2018-01-16T15:09:06.137Z,3.00
2018-01-16T15:11:36.922Z,3.00
2018-01-16T15:14:07.599Z,3.10
2018-01-16T15:16:38.877Z,3.10
2018-01-16T15:19:10.583Z,3.00
2018-01-16T15:21:41.322Z,3.00
2018-01-16T15:24:12.048Z,3.10
2018-01-16T15:26:43.518Z,3.10
2018-01-16T15:29:14.457Z,3.10
2018-01-16T15:31:45.161Z,3.20
2018-01-16T15:34:15.886Z,3.10
2018-01-16T15:36:46.574Z,3.10
2018-01-16T15:39:18.249Z,3.00
2018-01-16T15:41:49.734Z,3.00
2018-01-16T15:44:20.481Z,3.00
2018-01-16T15:46:51.505Z,3.00
2018-01-16T15:49:22.234Z,2.90
2018-01-16T15:51:54.618Z,2.80
2018-01-16T15:54:25.489Z,2.80
2018-01-16T15:56:56.770Z,2.70
2018-01-16T15:59:27.842Z,2.70
2018-01-16T16:01:58.540Z,2.60
2018-01-16T16:04:29.261Z,2.60
2018-01-16T16:07:00.518Z,2.40
2018-01-16T16:09:31.254Z,2.30
2018-01-16T16:12:02.350Z,2.20
2018-01-16T16:14:33.083Z,2.20
2018-01-16T16:17:03.827Z,2.10
2018-01-16T16:19:35.255Z,2.00
2018-01-16T16:22:05.942Z,2.00
2018-01-16T16:24:36.697Z,1.90
2018-01-16T16:27:07.843Z,2.20
2018-01-16T16:29:38.833Z,1.90
2018-01-16T16:32:10.375Z,1.80
2018-01-16T16:34:41.954Z,1.80
2018-01-16T16:37:12.730Z,1.80
2018-01-16T16:39:44.335Z,1.80
2018-01-16T16:42:15.134Z,1.70
2018-01-16T16:44:45.871Z,1.70
2018-01-16T16:47:16.574Z,1.80
2018-01-16T16:49:48.043Z,1.70
2018-01-16T16:52:19.690Z,1.70
2018-01-16T16:54:50.394Z,1.70
2018-01-16T16:57:21.410Z,1.70
2018-01-16T17:00:26.042Z,1.80
2018-01-16T17:03:03.448Z,1.80
2018-01-16T17:05:35.101Z,1.80
2018-01-16T17:08:05.853Z,1.70
2018-01-16T17:10:36.554Z,1.80
2018-01-16T17:13:07.294Z,1.80
2018-01-16T17:15:38.410Z,1.80
2018-01-16T17:18:09.095Z,1.70
2018-01-16T17:20:40.015Z,1.80
2018-01-16T17:23:12.278Z,1.80
2018-01-16T17:25:47.109Z,1.90
2018-01-16T17:28:18.966Z,1.90
2018-01-16T17:30:50.037Z,1.90
2018-01-16T17:33:22.846Z,1.90
2018-01-16T17:35:53.675Z,1.90
2018-01-16T17:38:25.106Z,2.00
2018-01-16T17:40:55.858Z,2.00
2018-01-16T17:43:27.354Z,2.10
2018-01-16T17:45:58.586Z,2.00
2018-01-16T17:48:29.314Z,2.10
2018-01-16T17:51:00.830Z,2.10
2018-01-16T17:53:32.621Z,2.00
2018-01-16T17:56:03.385Z,2.00
2018-01-16T17:58:34.115Z,2.10
2018-01-16T18:01:04.862Z,2.10
2018-01-16T18:03:35.582Z,2.10
2018-01-16T18:06:06.554Z,2.00
2018-01-16T18:08:38.092Z,2.00
2018-01-16T18:11:09.086Z,2.00
2018-01-16T18:13:39.823Z,2.00
2018-01-16T18:16:10.534Z,1.90
2018-01-16T18:18:41.266Z,1.90
2018-01-16T18:21:12.053Z,1.80
2018-01-16T18:23:43.050Z,1.80
2018-01-16T18:26:15.653Z,1.90
2018-01-16T18:28:46.366Z,1.90
2018-01-16T18:31:17.166Z,1.90
2018-01-16T18:33:47.945Z,1.90
2018-01-16T18:36:18.990Z,1.80
2018-01-16T18:38:49.855Z,1.80
2018-01-16T18:41:21.381Z,1.80
2018-01-16T18:43:52.155Z,1.70
2018-01-16T18:46:22.954Z,1.70
2018-01-16T18:48:53.658Z,1.40
2018-01-16T18:51:24.551Z,1.70
2018-01-16T18:53:56.371Z,1.80
2018-01-16T18:56:27.758Z,1.80
2018-01-16T18:58:59.524Z,1.80
2018-01-16T19:01:30.983Z,1.80
2018-01-16T19:04:02.526Z,1.80
2018-01-16T19:06:34.495Z,1.90
2018-01-16T19:09:06.082Z,1.90
2018-01-16T19:11:36.816Z,1.90
2018-01-16T19:14:07.952Z,1.90
2018-01-16T19:16:38.753Z,2.00
2018-01-16T19:19:09.562Z,2.30
2018-01-16T19:21:40.348Z,2.10
2018-01-16T19:24:11.121Z,2.10
2018-01-16T19:26:42.250Z,2.10
2018-01-16T19:29:13.021Z,2.10
2018-01-16T19:31:44.745Z,2.10
2018-01-16T19:34:15.528Z,2.10
2018-01-16T19:36:47.080Z,2.10
2018-01-16T19:39:17.948Z,2.10
2018-01-16T19:41:48.728Z,2.10
2018-01-16T19:44:20.550Z,2.00
2018-01-16T19:46:51.463Z,2.00
2018-01-16T19:49:22.195Z,2.00
2018-01-16T19:51:53.106Z,2.00
2018-01-16T19:54:24.637Z,1.80
2018-01-16T19:56:56.191Z,1.80
2018-01-16T19:59:27.738Z,1.80
2018-01-16T20:01:58.502Z,1.80
2018-01-16T20:04:29.650Z,1.90
2018-01-16T20:07:00.466Z,1.90
2018-01-16T20:09:32.248Z,1.90
2018-01-16T20:12:03.190Z,1.90
2018-01-16T20:14:33.923Z,1.90
2018-01-16T20:17:05.460Z,2.00
2018-01-16T20:19:36.285Z,2.00
2018-01-16T20:22:07.303Z,2.00
2018-01-16T20:24:38.038Z,1.90
2018-01-16T20:27:08.840Z,2.00
2018-01-16T20:29:39.603Z,2.00
2018-01-16T20:32:10.358Z,2.00
2018-01-16T20:34:41.413Z,2.00
2018-01-16T20:37:12.188Z,1.90
2018-01-16T20:39:42.908Z,1.90
2018-01-16T20:42:13.614Z,1.90
2018-01-16T20:44:44.334Z,2.00
2018-01-16T20:47:15.104Z,2.00
2018-01-16T20:49:45.884Z,2.00
2018-01-16T20:52:17.423Z,2.00
2018-01-16T20:54:48.921Z,2.00
2018-01-16T20:57:19.666Z,2.00
2018-01-16T20:59:51.204Z,2.00
2018-01-16T21:02:21.951Z,2.00
2018-01-16T21:04:53.138Z,1.90
2018-01-16T21:07:23.935Z,1.80
2018-01-16T21:09:54.749Z,1.70
2018-01-16T21:12:25.570Z,1.70
2018-01-16T21:14:56.342Z,1.60
2018-01-16T21:17:27.041Z,1.60
2018-01-16T21:19:57.761Z,1.60
2018-01-16T21:22:28.522Z,1.50
2018-01-16T21:24:59.310Z,1.50
2018-01-16T21:27:30.118Z,1.70
2018-01-16T21:30:00.805Z,1.10
2018-01-16T21:32:31.655Z,1.00
2018-01-16T21:35:02.762Z,0.90
2018-01-16T21:37:33.655Z,0.90
2018-01-16T21:40:04.465Z,0.90
2018-01-16T21:42:35.182Z,1.00
2018-01-16T21:45:05.336Z,1.00
2018-01-16T21:47:36.090Z,1.10
2018-01-16T21:50:07.698Z,1.20
2018-01-16T21:52:38.467Z,1.20
2018-01-16T21:55:09.319Z,1.30
2018-01-16T21:57:40.829Z,1.30
2018-01-16T22:00:11.910Z,1.50
2018-01-16T22:02:42.854Z,1.40
2018-01-16T22:05:14.621Z,1.40
2018-01-16T22:07:46.723Z,1.50
2018-01-16T22:10:18.318Z,1.60
2018-01-16T22:12:49.073Z,1.60
2018-01-16T22:15:19.844Z,1.60
2018-01-16T22:17:50.608Z,1.70
2018-01-16T22:20:21.405Z,1.70
2018-01-16T22:22:52.412Z,1.70
2018-01-16T22:25:24.582Z,1.70
2018-01-16T22:27:56.446Z,1.80
2018-01-16T22:30:27.325Z,1.80
2018-01-16T22:33:01.200Z,2.10
2018-01-16T22:35:32.510Z,1.80
2018-01-16T22:38:04.272Z,1.80
2018-01-16T22:40:35.222Z,1.80
2018-01-16T22:43:06.201Z,1.80
2018-01-16T22:45:37.205Z,1.90
2018-01-16T22:48:07.980Z,1.80
2018-01-16T22:50:39.222Z,1.80
2018-01-16T22:53:10.538Z,1.80
2018-01-16T22:55:41.441Z,1.80
2018-01-16T22:58:14.923Z,1.80
2018-01-16T23:00:46.331Z,1.80
2018-01-16T23:03:18.194Z,1.70
2018-01-16T23:05:50.058Z,1.70
2018-01-16T23:08:20.790Z,1.70
2018-01-16T23:10:51.546Z,1.80
2018-01-16T23:13:22.383Z,1.80
2018-01-16T23:15:53.098Z,1.80
2018-01-16T23:18:24.154Z,1.90
2018-01-16T23:20:54.899Z,1.90
2018-01-16T23:23:25.920Z,1.90
2018-01-16T23:25:56.651Z,1.90
2018-01-16T23:28:28.134Z,1.90
2018-01-16T23:31:00.004Z,2.00
2018-01-16T23:33:31.503Z,1.90
2018-01-16T23:36:03.136Z,1.90
2018-01-16T23:38:33.836Z,2.00
2018-01-16T23:41:05.322Z,2.00
2018-01-16T23:43:36.858Z,1.90
2018-01-16T23:46:07.564Z,2.00
2018-01-16T23:48:39.126Z,2.00
2018-01-16T23:51:10.701Z,2.00
2018-01-16T23:53:41.687Z,2.00
2018-01-16T23:56:12.418Z,1.90
2018-01-16T23:58:43.118Z,1.90
